Weather observations for the past three days for
Jacksonville Municipal Airport
Metric (Imperial)
Date Time (cdt) Wind (kph) Vis. (km) Weather Sky Cond. Temperature (ºC) Relative Humidity Wind Chill (°C) Heat Index (°C) Pressure Precipitation (cm)
Air Dwpt 6 hour altimeter (cm) sea level (mb) 1 hr 3 hr 6 hr
Max. Min.
01 17:15 SW 9 16.09 Fair CLR 35.3 19.4 39% 38 76.1 0.0
01 16:55 S 13 16.09 Fair CLR 35.5 18.7 37% 37 76.1 0.0
01 16:35 SW 9 16.09 Fair CLR 35.7 20.7 42% 39 76.1 0.0
01 16:15 S 7 16.09 Fair CLR 36.1 19.7 38% 39 76.12 0.0
01 15:55 SW 13 16.09 Partly Cloudy SCT085 36.1 20.2 39% 39 76.12 0.0
01 15:35 W 7 16.09 Partly Cloudy SCT085 36.3 20.2 39% 39 76.12 0.0
01 15:15 SW 7 16.09 Fair CLR 36.2 20.1 39% 39 76.15 0.0
01 14:55 W 6 16.09 Fair CLR 36.2 20.4 40% 39 76.15 0.0
01 14:35 W 7 16.09 Fair CLR 36.1 20.9 41% 40 76.17 0.0
01 14:15 SW 11 16.09 Fair CLR 35.7 20.3 41% 39 76.2 0.0
01 13:55 W 7 16.09 Fair CLR 35.6 20.9 42% 39 76.2 0.0
01 13:35 W 7 16.09 Fair CLR 35.2 21.2 44% 39 76.23 0.0
01 13:15 SW 6 16.09 Fair CLR 34.6 21 45% 38 76.25 0.0
01 12:55 SW 7 16.09 Fair CLR 34.1 21.7 34.4 23.2 48% 38 76.25 0.0
01 12:35 W 9 16.09 Fair CLR 33.9 21.2 47% 37 76.25 0.0
01 12:15 SW 9 16.09 Fair CLR 33.4 21.3 49% 37 76.28 0.0
01 11:55 W 9 16.09 Fair CLR 33 21.5 51% 37 76.3 0.0
01 11:35 SW 6 16.09 Fair CLR 32.5 21.3 52% 36 76.3 0.0
01 11:15 SW 7 16.09 Fair CLR 31.8 20.9 52% 35 76.3 0.0
01 10:55 W 9 16.09 Fair CLR 31.4 21.1 54% 34 76.33 0.0
01 10:35 W 11 16.09 Fair CLR 30.9 20.9 55% 34 76.3 0.0
01 10:15 W 7 16.09 Fair CLR 30.3 20.9 57% 33 76.3 0.0
01 09:55 SW 13 16.09 Fair CLR 29.4 20.7 60% 32 76.3 0.0
01 09:35 SW 11 16.09 Fair CLR 29 20.6 61% 31 76.3 0.0
01 09:15 SW 11 16.09 Fair CLR 28 20.5 64% 30 76.3 0.0
01 08:55 SW 11 16.09 Fair CLR 27.3 20.5 66% 29 76.3 0.0
01 08:35 SW 11 16.09 Fair CLR 26.5 20.5 70% 28 76.3 0.0
01 08:15 SW 11 16.09 Fair CLR 25.7 20.2 72% 27 76.3 0.0
01 07:55 SW 9 16.09 Fair CLR 25.3 20 73% 26 76.3 0.0
01 07:35 SW 9 16.09 Fair CLR 24.5 20.1 77% 25 76.28 0.0
01 07:15 SW 7 16.09 Fair CLR 23.7 20 80% 76.28 0.0
01 06:55 S 7 16.09 Fair CLR 23.1 19.8 25.4 22.8 82% 76.25 0.0
01 06:35 S 9 16.09 Fair CLR 22.9 19.8 83% 76.25 0.0
01 06:15 SW 7 16.09 Fair CLR 23.2 20 82% 76.23 0.0
01 05:55 S 11 16.09 Fair CLR 23.5 20 81% 76.23 0.0
01 05:35 S 9 16.09 Fair CLR 24 20 78% 24 76.2 0.0
01 05:15 S 11 16.09 Fair CLR 24.4 20.1 77% 25 76.2 0.0
01 04:55 S 11 16.09 Fair CLR 24.6 20.1 76% 25 76.17 0.0
01 04:35 S 11 16.09 Fair CLR 24.3 20.2 78% 25 76.17 0.0
01 04:15 S 9 16.09 Fair CLR 24.2 20.1 78% 25 76.17 0.0
01 03:55 S 9 16.09 Fair CLR 24.3 20.2 78% 25 76.17 0.0
01 03:35 S 9 16.09 Fair CLR 24.2 20.2 78% 25 76.17 0.0
01 03:15 S 9 16.09 Fair CLR 24.5 20.3 78% 25 76.17 0.0
01 02:55 S 11 16.09 Fair CLR 24.5 20.3 78% 25 76.17 0.0
01 02:35 S 11 16.09 Fair CLR 24.5 20.4 78% 25 76.17 0.0
01 02:15 S 11 16.09 Fair CLR 24.6 20.5 78% 25 76.17 0.0
01 01:55 S 9 16.09 Fair CLR 25 20.5 76% 26 76.17 0.0
01 01:35 S 9 16.09 Fair CLR 25.2 20.5 75% 26 76.17 0.0
01 01:15 S 9 16.09 Fair CLR 25.3 20.6 75% 26 76.17 0.0
01 00:55 S 9 16.09 Fair CLR 25.1 20.7 32.3 25.1 77% 26 76.17 0.0
01 00:35 S 9 16.09 Fair CLR 25.2 20.7 76% 26 76.15 0.0
01 00:15 S 7 16.09 Fair CLR 25.5 20.7 75% 27 76.15 0.0
31 23:55 S 7 16.09 Fair CLR 26.1 20.7 72% 28 76.15 0.0
31 23:35 S 11 16.09 Fair CLR 26.4 20.8 71% 28 76.15 0.0
31 22:55 S 6 16.09 Fair CLR 26.6 21 71% 28 76.15 0.0
31 22:35 S 9 16.09 Fair CLR 26.5 21.1 72% 28 76.15 0.0
31 22:15 S 7 16.09 Fair CLR 26.3 21.1 73% 28 76.15 0.0
31 21:55 S 7 16.09 Fair CLR 26.9 21.1 71% 29 76.15 0.0
31 21:35 S 6 16.09 Fair CLR 25.9 21.4 76% 27 76.15 0.0
31 21:15 S 6 16.09 Fair CLR 27.9 21.1 67% 30 76.15 0.0
31 20:55 S 7 16.09 Fair CLR 28.9 21.1 63% 31 76.12 0.0
31 20:35 S 11 16.09 Fair CLR 29.7 21.1 60% 32 76.1 0.0
31 20:15 S 13 16.09 Fair CLR 29.9 21.5 61% 33 76.07 0.0
31 19:55 S 13 16.09 Fair CLR 30.4 21.6 59% 33 76.05 0.0
31 19:35 S 13 16.09 Fair CLR 30.7 21.6 58% 34 76.05 0.0
31 19:15 S 11 16.09 Fair CLR 31.4 21.7 56% 35 76.05 0.0
31 18:35 S 11 16.09 Fair CLR 32.9 21.5 51% 36 76.05 0.0
31 18:15 S 13 G 26 16.09 Fair CLR 33.6 21.1 48% 37 76.05 0.0
31 17:55 S 17 G 28 16.09 Fair CLR 34.1 21.1 47% 37 76.05 0.0
31 17:35 S 17 16.09 Fair CLR 34.6 20.8 44% 38 76.05 0.0
31 17:15 S 13 16.09 Fair CLR 34.8 20.1 42% 37 76.05 0.0
31 16:55 S 13 16.09 Fair CLR 35 20.5 43% 38 76.05 0.0
31 16:35 SW 19 G 30 16.09 Fair CLR 35.1 19.9 41% 38 76.05 0.0
31 16:15 SW 19 16.09 Fair CLR 35.2 20.5 42% 38 76.07 0.0
31 15:55 SW 15 G 30 16.09 Fair CLR 35.2 20 41% 38 76.05 0.0
31 15:35 S 15 G 30 16.09 Fair CLR 35.1 20.3 42% 38 76.05 0.0
31 15:15 S 19 G 28 16.09 Fair CLR 35.1 20.5 42% 38 76.07 0.0
31 14:55 S 15 16.09 Fair CLR 35.1 20.5 42% 38 76.07 0.0
31 14:35 S 15 16.09 Fair CLR 34.8 20.4 43% 38 76.1 0.0
31 14:15 SW 9 16.09 Fair CLR 35 21.2 45% 39 76.1 0.0
31 13:55 S 15 16.09 Fair CLR 34.6 21.2 46% 38 76.12 0.0
31 13:35 SW 13 16.09 Fair CLR 34.1 20.4 45% 37 76.15 0.0
31 13:15 SW 17 16.09 Fair CLR 33.7 20.5 46% 36 76.15 0.0
31 12:55 S 15 G 26 16.09 Fair CLR 33.7 20.6 33.8 21.5 46% 37 76.17 0.0
31 12:35 SW 15 16.09 Fair CLR 33.3 20.9 48% 36 76.2 0.0
31 12:15 SW 11 16.09 Partly Cloudy SCT110 32.9 20.6 48% 36 76.23 0.0
31 11:55 SW 17 16.09 Partly Cloudy SCT110 32 20 49% 34 76.23 0.0
31 11:35 SW 17 16.09 Partly Cloudy SCT110 31.6 19.6 49% 33 76.23 0.0
31 11:15 SW 19 16.09 Fair CLR 31.2 19.6 50% 33 76.23 0.0
31 10:55 SW 19 G 26 16.09 Fair CLR 30.6 19.2 51% 32 76.25 0.0
31 10:35 SW 17 16.09 Fair CLR 30 18.9 51% 31 76.25 0.0
31 10:15 SW 15 16.09 Fair CLR 29.1 18.7 53% 30 76.25 0.0
31 09:55 SW 17 16.09 Fair CLR 28.4 18.6 55% 29 76.25 0.0
31 09:35 S 19 16.09 Fair CLR 27.4 18.1 57% 28 76.25 0.0
31 09:15 SW 15 16.09 Fair CLR 26.5 17.6 58% 27 76.25 0.0
31 08:55 SW 17 G 28 16.09 Fair CLR 25.9 17.3 59% 27 76.25 0.0
31 08:35 S 15 16.09 Fair CLR 24.5 17.4 65% 26 76.25 0.0
31 08:15 S 17 16.09 Fair CLR 23.8 17 66% 76.23 0.0
31 07:55 S 11 16.09 Fair CLR 23.1 16.9 68% 76.23 0.0
31 07:35 S 13 16.09 Fair CLR 22.5 16.6 69% 76.2 0.0
31 07:15 S 13 16.09 Fair CLR 22 16.5 71% 76.17 0.0
31 06:55 S 11 16.09 Fair CLR 21.4 16.4 24.5 21 73% 76.17 0.0
31 06:35 S 9 16.09 Fair CLR 21.1 16.3 74% 76.17 0.0
31 06:15 S 9 16.09 Fair CLR 21.2 16.3 74% 76.15 0.0
31 05:55 S 9 16.09 Fair CLR 21.3 16.4 74% 76.15 0.0
31 05:35 S 9 16.09 Fair CLR 21.6 16.5 73% 76.15 0.0
31 05:15 S 11 16.09 Fair CLR 21.7 16.5 72% 76.15 0.0
31 04:55 S 9 16.09 Fair CLR 21.7 16.5 72% 76.15 0.0
31 04:35 S 9 16.09 Fair CLR 22.1 16.5 71% 76.15 0.0
31 04:15 S 11 16.09 Fair CLR 22.5 16.5 69% 76.15 0.0
31 03:55 S 11 16.09 Fair CLR 22.8 16.5 68% 76.15 0.0
31 03:35 S 9 16.09 Fair CLR 23.1 16.6 67% 76.15 0.0
31 03:15 S 11 16.09 Fair CLR 23.1 16.7 67% 76.12 0.0
31 02:55 S 9 16.09 Fair CLR 23.2 16.7 67% 76.12 0.0
31 02:35 S 13 16.09 Fair CLR 23.4 16.8 67% 76.12 0.0
31 02:15 S 9 16.09 Fair CLR 23.7 16.8 65% 76.15 0.0
31 01:55 S 9 16.09 Fair CLR 23.8 16.8 65% 76.15 0.0
31 01:35 S 11 16.09 Fair CLR 24 16.9 65% 25 76.15 0.0
31 01:15 S 11 16.09 Fair CLR 24.2 16.9 64% 25 76.15 0.0
31 00:55 S 11 16.09 Fair CLR 24.4 17 29.7 24.4 63% 25 76.15 0.0
31 00:35 S 9 16.09 Fair CLR 24.5 17 63% 26 76.15 0.0
31 00:15 S 11 16.09 Fair CLR 24.6 17.1 63% 26 76.15 0.0
30 23:55 S 9 16.09 Fair CLR 24.7 17.1 63% 26 76.17 0.0
30 23:35 S 13 16.09 Fair CLR 25 17.1 62% 26 76.17 0.0
30 23:15 S 11 16.09 Fair CLR 25.2 17.1 61% 26 76.17 0.0
30 22:55 S 15 16.09 Fair CLR 25.9 17 58% 27 76.15 0.0
30 22:35 S 11 16.09 Fair CLR 26.1 17.2 58% 27 76.15 0.0
30 22:15 S 13 16.09 Fair CLR 26.2 17.3 58% 27 76.15 0.0
30 21:55 S 15 16.09 Fair CLR 26.6 17.2 56% 27 76.15 0.0
30 21:35 S 13 16.09 Fair CLR 27.1 17.2 55% 28 76.15 0.0
30 21:15 SE 13 G 28 16.09 Fair CLR 27.2 17.5 55% 28 76.15 0.0
30 20:55 SE 17 16.09 Fair CLR 27.5 17.3 54% 28 76.12 0.0
30 20:35 SE 17 16.09 Fair CLR 27.7 17.4 53% 28 76.12 0.0
30 20:15 SE 13 16.09 Fair CLR 27.5 18.1 57% 28 76.1 0.0
30 19:55 SE 13 16.09 Fair CLR 27.8 18.8 58% 29 76.1 0.0
30 19:35 SE 13 16.09 Fair CLR 28.4 18.7 56% 30 76.07 0.0
30 19:15 SE 9 16.09 Fair CLR 28.9 18.5 53% 30 76.1 0.0
30 18:55 SE 11 16.09 Fair CLR 29.8 18.5 33 29.8 51% 31 76.1 0.0
30 18:35 S 13 16.09 Fair CLR 30.9 18.5 48% 32 76.1 0.0
30 18:15 S 11 16.09 Fair CLR 31.5 18.5 46% 33 76.1 0.0
30 17:55 S 15 16.09 Fair CLR 31.5 18 45% 32 76.1 0.0
30 17:35 S 13 16.09 Fair CLR 31.6 17.6 43% 32 76.1 0.0
30 17:15 S 15 16.09 Fair CLR 32.5 18 42% 33 76.1 0.0
30 16:55 S 17 16.09 Fair CLR 32.8 18.6 43% 34 76.1 0.0
30 16:35 S 15 16.09 Fair CLR 31.9 18.4 45% 33 76.1 0.0
30 16:15 S 15 G 26 16.09 Fair CLR 32.6 18.6 43% 34 76.1 0.0
30 15:55 S 13 16.09 Fair CLR 32.9 19 44% 34 76.12 0.0
30 15:35 S 19 16.09 Fair CLR 32.6 18.8 44% 34 76.12 0.0
30 15:15 S 13 16.09 Fair CLR 32.5 18.6 44% 34 76.15 0.0
30 14:55 S 11 16.09 Fair CLR 32.5 18.7 44% 34 76.15 0.0
30 14:35 S 13 16.09 Fair CLR 32.4 18.7 44% 34 76.15 0.0
30 14:15 S 11 16.09 Fair CLR 32.3 19 45% 34 76.17 0.0
30 13:55 S 15 16.09 Fair CLR 32.2 18.7 45% 34 76.2 0.0
30 13:35 S 17 16.09 Fair CLR 31.8 18.7 46% 33 76.23 0.0
30 13:15 S 13 16.09 Fair CLR 31.7 18.6 46% 33 76.23 0.0
30 12:55 S 15 16.09 Fair CLR 31.1 18.6 31.1 21.1 47% 32 76.23 0.0
30 12:35 S 13 16.09 Fair CLR 30.7 18.5 48% 32 76.23 0.0
30 12:15 SW 13 16.09 Fair CLR 30.1 18.1 49% 31 76.28 0.0
30 11:55 SW 11 16.09 Fair CLR 30 18.6 50% 31 76.28 0.0
30 11:35 S 17 G 22 16.09 Fair CLR 29.6 18.4 51% 31 76.28 0.0
30 11:15 S 17 16.09 Fair CLR 28.8 18.4 53% 30 76.28 0.0
30 10:55 S 15 16.09 Fair CLR 28.7 18.4 54% 30 76.28 0.0
30 10:35 S 19 G 28 16.09 Fair CLR 28.3 18 54% 29 76.28 0.0
30 10:15 S 19 G 26 16.09 Fair CLR 27.6 17.8 55% 28 76.28 0.0
30 09:55 SW 15 16.09 Fair CLR 27.1 18.1 58% 28 76.25 0.0
30 09:35 S 19 16.09 Fair CLR 26.2 17.7 60% 27 76.23 0.0
30 09:15 S 13 16.09 Fair CLR 25.4 17.7 62% 26 76.23 0.0
30 08:55 S 20 G 28 16.09 Fair CLR 24.6 17.2 64% 26 76.25 0.0
30 08:35 S 15 16.09 Fair CLR 23.9 17.2 66% 25 76.25 0.0
30 08:15 S 15 16.09 Fair CLR 23 17.3 70% 76.25 0.0
30 07:55 S 13 16.09 Fair CLR 22.2 17.4 74% 76.25 0.0
30 07:35 S 13 16.09 Fair CLR 21.6 17.3 77% 76.25 0.0
30 07:15 S 13 16.09 Fair CLR 21.2 17.3 79% 76.23 0.0
30 06:55 S 15 16.09 Fair CLR 21 17.2 23 21 79% 76.2 0.0
30 06:35 S 15 16.09 Fair CLR 21.3 17.3 78% 76.23 0.0
30 06:15 S 15 16.09 Fair CLR 21.3 17.4 79% 76.23 0.0
30 05:55 S 15 16.09 Fair CLR 21.2 17.5 80% 76.23 0.0
30 05:35 S 15 16.09 Fair CLR 21.5 17.5 78% 76.2 0.0
30 05:15 S 15 16.09 Fair CLR 21.3 17.4 79% 76.2 0.0
30 04:55 S 15 16.09 Fair CLR 21.5 17.5 78% 76.2 0.0
30 04:35 S 11 16.09 Fair CLR 21.7 17.2 76% 76.2 0.0
30 04:15 S 13 G 26 16.09 Fair CLR 22 17.2 74% 76.17 0.0
30 03:55 S 13 16.09 Fair CLR 21.9 17.3 75% 76.2 0.0
30 03:35 S 13 16.09 Fair CLR 22.1 17.3 74% 76.2 0.0
30 03:15 S 15 16.09 Fair CLR 22.4 17.3 73% 76.23 0.0
30 02:35 S 17 16.09 Fair CLR 22.7 17.4 72% 76.23 0.0
30 02:15 S 17 G 26 16.09 Fair CLR 22.8 17.5 72% 76.23 0.0
30 01:55 S 13 16.09 Fair CLR 22.7 17.5 73% 76.25 0.0
30 01:35 S 13 16.09 Fair CLR 22.5 17.4 73% 76.25 0.0
30 01:15 S 9 16.09 Fair CLR 22.6 17.5 73% 76.25 0.0
30 00:55 S 13 16.09 Fair CLR 23 17.5 26.1 22.4 71% 76.28 0.0
30 00:35 S 15 16.09 Fair CLR 22.8 17.4 72% 76.25 0.0
30 00:15 S 13 16.09 Fair CLR 22.5 17.4 73% 76.28 0.0
29 23:55 S 15 16.09 Fair CLR 22.4 17.5 74% 76.28 0.0
29 23:35 S 11 16.09 Fair CLR 22.7 17.5 73% 76.28 0.0
29 23:15 S 13 16.09 Fair CLR 22.8 17.5 72% 76.28 0.0
29 22:55 S 11 16.09 Fair CLR 23 17.5 71% 76.28 0.0
29 22:35 S 15 16.09 Fair CLR 23.5 17.3 68% 76.25 0.0
29 22:15 S 13 16.09 Fair CLR 23.7 17.2 67% 76.25 0.0
29 21:55 S 13 16.09 Fair CLR 23.8 17.2 67% 76.28 0.0
29 21:35 S 13 16.09 Fair CLR 23.8 17.2 67% 76.28 0.0
29 21:15 SE 13 16.09 Fair CLR 23.5 17.3 68% 76.28 0.0
29 20:55 SE 9 16.09 Fair CLR 23.5 17.5 69% 76.25 0.0
29 20:35 SE 9 16.09 Fair CLR 23.7 17.4 68% 76.25 0.0
29 20:15 SE 9 16.09 Fair CLR 23.5 17.5 69% 76.25 0.0
29 19:55 SE 7 16.09 Fair CLR 23.9 17.6 68% 25 76.25 0.0
29 19:35 SE 7 16.09 Fair CLR 25 17.9 65% 26 76.25 0.0
29 19:15 SE 11 16.09 Fair CLR 25.6 17.8 62% 27 76.25 0.0
29 18:55 S 9 16.09 Fair CLR 26.1 17.7 28.6 26.1 60% 27 76.25 0.0
29 18:35 S 13 16.09 Fair CLR 26.5 17.6 58% 27 76.23 0.0
29 18:15 S 17 16.09 Fair CLR 26.8 17.4 56% 28 76.2 0.0
29 17:55 S 17 G 26 16.09 Fair CLR 27 17.7 57% 28 76.23 0.0
29 17:35 S 15 16.09 Fair CLR 27.5 17.6 55% 28 76.28 0.0
Date Time (cdt) Wind (kph) Vis. (km) Weather Sky Cond. Air Dwpt Max. Min. Relative Humidity Wind Chill (°C) Heat Index (°C) altimeter (cm) sea level (mb) 1 hr 3 hr 6 hr
6 hour
Temperature (ºC) Pressure Precipitation (cm)